Time;durP1;ratioP1;P1;durP2;ratioP2;P2;SDS_P1;SDS_P2;PMS_P1;PMS_P2;Temp;Humidity;BMP_temperature;BMP_pressure;BME280_temperature;BME280_humidity;BME280_pressure;Samples;Min_cycle;Max_cycle;Signal;HPM_P1;HPM_P2
2022/11/15 00:00:46;;;;;;;5.40;3.87;;;;;;;;;;4908707;29;20217;-68
2022/11/15 00:03:14;;;;;;;6.07;3.47;;;;;;;;;;4910255;29;20208;-68
2022/11/15 00:05:42;;;;;;;4.30;2.83;;;;;;;;;;4914298;29;20208;-68
2022/11/15 00:08:09;;;;;;;5.70;3.47;;;;;;;;;;4904407;29;20545;-68
2022/11/15 00:10:36;;;;;;;8.33;4.00;;;;;;;;;;4905174;29;20212;-67
2022/11/15 00:13:05;;;;;;;4.63;3.83;;;;;;;;;;4912477;29;20208;-68
2022/11/15 00:15:32;;;;;;;5.77;2.80;;;;;;;;;;4907337;29;20228;-67
2022/11/15 00:18:01;;;;;;;6.30;4.03;;;;;;;;;;4912605;29;20235;-67
2022/11/15 00:20:28;;;;;;;6.07;3.90;;;;;;;;;;4911507;29;20698;-67
2022/11/15 00:22:55;;;;;;;3.97;3.57;;;;;;;;;;4913176;29;20216;-68
2022/11/15 00:25:22;;;;;;;6.40;4.17;;;;;;;;;;4912749;29;20211;-68
2022/11/15 00:27:51;;;;;;;6.97;3.93;;;;;;;;;;4913555;29;20935;-68
2022/11/15 00:30:18;;;;;;;7.40;4.43;;;;;;;;;;4912485;29;20213;-68
2022/11/15 00:32:45;;;;;;;4.33;3.90;;;;;;;;;;4906253;29;20216;-68
2022/11/15 00:35:14;;;;;;;6.03;4.17;;;;;;;;;;4912781;29;20211;-68
2022/11/15 00:37:41;;;;;;;5.43;4.27;;;;;;;;;;4913554;29;20228;-68
2022/11/15 00:40:09;;;;;;;6.07;3.87;;;;;;;;;;4904655;29;20209;-68
2022/11/15 00:42:36;;;;;;;4.13;3.83;;;;;;;;;;4908084;29;20212;-68
2022/11/15 00:45:03;;;;;;;5.83;4.10;;;;;;;;;;4913434;29;20216;-68
2022/11/15 00:47:30;;;;;;;4.60;3.97;;;;;;;;;;4905062;29;20204;-68
2022/11/15 00:49:57;;;;;;;9.17;4.10;;;;;;;;;;4913713;29;20216;-69
2022/11/15 00:52:26;;;;;;;3.93;3.40;;;;;;;;;;4911563;29;20212;-68
2022/11/15 00:54:53;;;;;;;4.37;3.80;;;;;;;;;;4905943;29;20228;-68
2022/11/15 00:57:20;;;;;;;5.37;3.70;;;;;;;;;;4908473;29;20232;-68
2022/11/15 00:59:47;;;;;;;7.37;3.70;;;;;;;;;;4908227;29;20239;-69
2022/11/15 01:02:14;;;;;;;5.37;4.03;;;;;;;;;;4907569;29;20200;-68
2022/11/15 01:04:41;;;;;;;6.10;3.63;;;;;;;;;;4911160;29;20208;-69
2022/11/15 01:07:08;;;;;;;7.33;4.27;;;;;;;;;;4910808;29;20200;-69
2022/11/15 01:09:37;;;;;;;4.97;3.87;;;;;;;;;;4901864;29;20965;-69
2022/11/15 01:12:04;;;;;;;7.23;4.57;;;;;;;;;;4910286;29;20211;-69
2022/11/15 01:14:31;;;;;;;5.30;3.80;;;;;;;;;;4906703;29;20204;-69
2022/11/15 01:16:58;;;;;;;4.20;3.77;;;;;;;;;;4906372;29;20865;-68
2022/11/15 01:19:25;;;;;;;6.67;3.93;;;;;;;;;;4907830;29;20220;-69
2022/11/15 01:21:53;;;;;;;4.20;3.80;;;;;;;;;;4907808;29;20212;-69
2022/11/15 01:24:20;;;;;;;5.63;4.03;;;;;;;;;;4906060;29;20227;-68
2022/11/15 01:26:48;;;;;;;4.33;3.63;;;;;;;;;;4906453;29;20200;-68
2022/11/15 01:29:15;;;;;;;5.63;3.53;;;;;;;;;;4910384;29;20224;-69
2022/11/15 01:31:42;;;;;;;2.87;2.77;;;;;;;;;;4909301;29;20216;-69
2022/11/15 01:34:09;;;;;;;3.67;3.30;;;;;;;;;;4905910;29;20209;-68
2022/11/15 01:36:37;;;;;;;5.80;3.67;;;;;;;;;;4904917;29;20330;-68
2022/11/15 01:39:04;;;;;;;3.83;3.50;;;;;;;;;;4907448;29;20210;-68
2022/11/15 01:41:32;;;;;;;4.53;3.97;;;;;;;;;;4911306;29;20660;-68
2022/11/15 01:44:14;;;;;;;4.13;3.63;;;;;;;;;;4910291;29;20205;-69
2022/11/15 01:46:45;;;;;;;5.47;3.80;;;;;;;;;;4907694;29;20200;-69
2022/11/15 01:49:14;;;;;;;5.80;3.60;;;;;;;;;;4908069;29;20588;-68
2022/11/15 01:51:41;;;;;;;3.90;3.53;;;;;;;;;;4910260;29;20556;-68
2022/11/15 01:54:10;;;;;;;4.70;3.90;;;;;;;;;;4912396;29;20231;-68
2022/11/15 01:56:39;;;;;;;5.13;3.73;;;;;;;;;;4900356;29;20667;-68
2022/11/15 01:59:08;;;;;;;4.60;3.90;;;;;;;;;;4908750;29;20673;-69
2022/11/15 02:01:35;;;;;;;5.00;3.90;;;;;;;;;;4907852;29;20557;-69
2022/11/15 02:04:05;;;;;;;4.53;3.80;;;;;;;;;;4910883;29;20215;-68
2022/11/15 02:06:33;;;;;;;5.87;3.77;;;;;;;;;;4907264;29;20219;-68
2022/11/15 02:09:00;;;;;;;3.80;3.50;;;;;;;;;;4911752;29;20217;-69
2022/11/15 02:11:28;;;;;;;3.57;3.23;;;;;;;;;;4904203;29;20431;-68
2022/11/15 02:13:55;;;;;;;5.07;4.47;;;;;;;;;;4909867;29;20209;-68
2022/11/15 02:16:27;;;;;;;10.03;4.97;;;;;;;;;;4908184;29;20209;-68
2022/11/15 02:18:58;;;;;;;9.40;4.00;;;;;;;;;;4911695;29;20216;-68
2022/11/15 02:21:30;;;;;;;7.87;4.87;;;;;;;;;;4908621;29;20220;-68
2022/11/15 02:24:17;;;;;;;8.03;5.17;;;;;;;;;;4905937;29;20668;-68
2022/11/15 02:27:10;;;;;;;13.53;7.03;;;;;;;;;;4903992;29;20209;-69
2022/11/15 02:29:44;;;;;;;16.53;7.17;;;;;;;;;;4909535;29;20220;-68
2022/11/15 02:32:16;;;;;;;15.33;6.97;;;;;;;;;;4907748;29;20204;-68
2022/11/15 02:34:50;;;;;;;10.07;5.93;;;;;;;;;;4908942;29;20695;-68
2022/11/15 02:37:18;;;;;;;10.03;5.33;;;;;;;;;;4915849;29;20230;-68
2022/11/15 02:39:48;;;;;;;9.47;5.10;;;;;;;;;;4915252;29;20204;-68
2022/11/15 02:45:07;;;;;;;8.20;4.23;;;;;;;;;;4913056;29;20311;-68
2022/11/15 02:47:39;;;;;;;6.17;4.70;;;;;;;;;;4913593;29;20219;-68
2022/11/15 02:50:08;;;;;;;10.87;4.60;;;;;;;;;;4913467;29;20228;-68
2022/11/15 02:52:35;;;;;;;10.33;5.03;;;;;;;;;;4911129;29;21770;-68
2022/11/15 02:55:02;;;;;;;7.03;4.67;;;;;;;;;;4908692;29;20255;-68
2022/11/15 02:57:34;;;;;;;8.90;4.47;;;;;;;;;;4914051;29;20236;-68
2022/11/15 03:00:04;;;;;;;4.87;4.30;;;;;;;;;;4912893;29;20240;-69
2022/11/15 03:02:43;;;;;;;6.17;4.27;;;;;;;;;;4911969;29;20534;-69
2022/11/15 03:05:15;;;;;;;6.50;4.40;;;;;;;;;;4913279;29;20266;-68
2022/11/15 03:07:44;;;;;;;5.83;4.20;;;;;;;;;;4911979;29;20705;-69
2022/11/15 03:10:15;;;;;;;8.03;4.17;;;;;;;;;;4913456;29;20204;-68
2022/11/15 03:12:43;;;;;;;7.27;4.00;;;;;;;;;;4916110;29;20211;-68
2022/11/15 03:15:13;;;;;;;6.00;4.73;;;;;;;;;;4912148;29;20208;-69
2022/11/15 03:17:44;;;;;;;5.47;4.43;;;;;;;;;;4914633;29;20242;-68
2022/11/15 03:20:13;;;;;;;8.30;4.63;;;;;;;;;;4913451;29;20221;-69
2022/11/15 03:22:43;;;;;;;6.57;3.73;;;;;;;;;;4913876;29;20208;-69
2022/11/15 03:25:12;;;;;;;7.07;4.57;;;;;;;;;;4913373;29;20212;-69
2022/11/15 03:27:42;;;;;;;4.30;3.83;;;;;;;;;;4926580;29;20207;-68
2022/11/15 03:30:10;;;;;;;4.30;3.90;;;;;;;;;;4927614;29;20209;-69
2022/11/15 03:32:38;;;;;;;4.33;3.93;;;;;;;;;;4913716;29;20208;-69
2022/11/15 03:35:09;;;;;;;6.43;3.73;;;;;;;;;;4912896;29;20208;-69
2022/11/15 03:37:38;;;;;;;3.93;3.63;;;;;;;;;;4912588;29;20714;-70
2022/11/15 03:40:06;;;;;;;6.50;4.00;;;;;;;;;;4913571;29;20220;-68
2022/11/15 03:42:38;;;;;;;5.07;3.70;;;;;;;;;;4917968;29;20231;-68
2022/11/15 03:45:10;;;;;;;3.03;2.80;;;;;;;;;;4914868;29;20224;-68
2022/11/15 03:47:40;;;;;;;3.57;3.33;;;;;;;;;;4924955;29;20204;-68
2022/11/15 03:50:12;;;;;;;3.80;3.50;;;;;;;;;;4913687;29;20671;-68
2022/11/15 03:52:40;;;;;;;4.23;3.67;;;;;;;;;;4910916;29;20208;-68
2022/11/15 03:55:09;;;;;;;7.30;4.10;;;;;;;;;;4912381;29;20550;-68
2022/11/15 03:57:36;;;;;;;3.93;3.20;;;;;;;;;;4912875;29;20224;-68
2022/11/15 04:00:03;;;;;;;4.90;3.50;;;;;;;;;;4911844;29;20296;-68
2022/11/15 04:02:30;;;;;;;4.93;3.67;;;;;;;;;;4912212;29;20208;-68
2022/11/15 04:04:57;;;;;;;3.50;3.20;;;;;;;;;;4911791;29;20212;-68
2022/11/15 04:07:25;;;;;;;3.73;3.43;;;;;;;;;;4912407;29;20228;-68
2022/11/15 04:10:05;;;;;;;3.93;3.63;;;;;;;;;;4908211;29;20213;-68
2022/11/15 04:12:32;;;;;;;3.77;3.40;;;;;;;;;;4912717;29;20215;-68
2022/11/15 04:15:10;;;;;;;3.50;3.23;;;;;;;;;;4911769;29;20213;-68
2022/11/15 04:17:41;;;;;;;5.60;3.40;;;;;;;;;;4910970;29;20219;-68
2022/11/15 04:25:47;;;;;;;7.70;4.53;;;;;;;;;;4890973;29;20232;-68
2022/11/15 04:28:14;;;;;;;4.53;4.10;;;;;;;;;;4914421;29;20205;-68
2022/11/15 04:30:41;;;;;;;5.03;3.40;;;;;;;;;;4913492;29;20259;-68
2022/11/15 04:33:08;;;;;;;4.70;3.40;;;;;;;;;;4916531;29;20215;-68
2022/11/15 04:35:35;;;;;;;6.67;3.83;;;;;;;;;;4912746;29;20209;-68
2022/11/15 04:38:04;;;;;;;11.37;6.33;;;;;;;;;;4914470;29;20911;-68
2022/11/15 04:40:31;;;;;;;6.23;4.50;;;;;;;;;;4911974;29;20213;-68
2022/11/15 04:42:58;;;;;;;13.93;7.80;;;;;;;;;;4908781;29;20236;-68
2022/11/15 04:45:25;;;;;;;16.20;7.80;;;;;;;;;;4912505;29;20215;-68
2022/11/15 04:47:52;;;;;;;5.47;4.67;;;;;;;;;;4906445;29;20290;-68
2022/11/15 04:50:20;;;;;;;9.43;4.13;;;;;;;;;;4911710;29;20212;-68
2022/11/15 04:52:52;;;;;;;10.00;3.23;;;;;;;;;;4915001;29;20219;-68
2022/11/15 04:55:20;;;;;;;4.20;3.33;;;;;;;;;;4911895;29;20267;-69
2022/11/15 04:57:47;;;;;;;2.97;2.77;;;;;;;;;;4913000;29;20228;-69
2022/11/15 05:00:17;;;;;;;3.00;2.60;;;;;;;;;;4912044;29;20212;-69
2022/11/15 05:05:29;;;;;;;3.27;2.87;;;;;;;;;;4912665;29;20325;-69
2022/11/15 05:07:56;;;;;;;6.53;3.47;;;;;;;;;;4912744;29;20196;-69
2022/11/15 05:10:24;;;;;;;3.00;2.80;;;;;;;;;;4912465;29;20553;-69
2022/11/15 05:12:51;;;;;;;3.63;2.93;;;;;;;;;;4912206;29;20200;-68
2022/11/15 05:15:18;;;;;;;2.57;2.37;;;;;;;;;;4911575;29;20208;-68
2022/11/15 05:17:45;;;;;;;2.50;2.37;;;;;;;;;;4912694;29;20239;-69
2022/11/15 05:20:13;;;;;;;2.90;2.63;;;;;;;;;;4912407;29;20220;-69
2022/11/15 05:22:40;;;;;;;3.07;2.23;;;;;;;;;;4913126;29;20699;-69
2022/11/15 05:25:08;;;;;;;2.73;2.53;;;;;;;;;;4909338;29;20212;-69
2022/11/15 05:27:36;;;;;;;3.87;2.60;;;;;;;;;;4912102;29;20230;-69
2022/11/15 05:30:03;;;;;;;2.70;2.50;;;;;;;;;;4908682;29;20200;-69
2022/11/15 05:32:31;;;;;;;2.77;2.53;;;;;;;;;;4912302;29;20579;-69
2022/11/15 05:34:58;;;;;;;2.90;2.70;;;;;;;;;;4911793;29;20204;-69
2022/11/15 05:37:25;;;;;;;2.90;2.67;;;;;;;;;;4912217;29;20215;-69
2022/11/15 05:39:52;;;;;;;2.57;1.93;;;;;;;;;;4908106;29;20704;-69
2022/11/15 05:42:19;;;;;;;2.50;2.33;;;;;;;;;;4912028;29;20204;-69
2022/11/15 05:44:48;;;;;;;2.53;2.43;;;;;;;;;;4914626;29;20684;-69
2022/11/15 05:47:18;;;;;;;3.87;3.17;;;;;;;;;;4912396;29;20685;-69
2022/11/15 05:49:46;;;;;;;2.70;2.50;;;;;;;;;;4911491;29;20236;-69
2022/11/15 05:52:15;;;;;;;5.40;3.00;;;;;;;;;;4913892;29;20211;-69
2022/11/15 05:54:43;;;;;;;3.13;2.73;;;;;;;;;;4913211;29;20225;-69
2022/11/15 05:57:10;;;;;;;4.63;3.23;;;;;;;;;;4909985;29;20223;-69
2022/11/15 05:59:37;;;;;;;4.33;2.97;;;;;;;;;;4909571;29;20669;-69
2022/11/15 06:02:06;;;;;;;3.17;2.97;;;;;;;;;;4908710;29;20211;-68
2022/11/15 06:04:33;;;;;;;3.00;2.77;;;;;;;;;;4912700;29;20223;-69
2022/11/15 06:07:00;;;;;;;4.33;2.63;;;;;;;;;;4912773;29;20220;-69
2022/11/15 06:09:27;;;;;;;4.57;3.20;;;;;;;;;;4912200;29;20204;-69
2022/11/15 06:11:54;;;;;;;3.03;2.80;;;;;;;;;;4918480;29;20223;-70
2022/11/15 06:14:21;;;;;;;3.20;3.00;;;;;;;;;;4916928;29;20215;-70
2022/11/15 06:16:48;;;;;;;5.73;3.10;;;;;;;;;;4916567;29;20352;-71
2022/11/15 06:19:17;;;;;;;5.70;3.27;;;;;;;;;;4925987;29;20241;-67
2022/11/15 06:21:44;;;;;;;5.07;3.13;;;;;;;;;;4919673;29;20212;-67
2022/11/15 06:24:11;;;;;;;3.70;3.40;;;;;;;;;;4912926;29;20219;-68
2022/11/15 06:26:38;;;;;;;5.23;3.53;;;;;;;;;;4915424;29;20215;-69
2022/11/15 06:29:05;;;;;;;4.83;4.33;;;;;;;;;;4934497;29;20214;-69
2022/11/15 06:31:33;;;;;;;4.50;4.10;;;;;;;;;;4925228;29;21007;-68
2022/11/15 06:34:00;;;;;;;4.67;3.90;;;;;;;;;;4913988;29;20602;-62
2022/11/15 06:36:28;;;;;;;13.97;8.50;;;;;;;;;;4921888;29;20546;-62
2022/11/15 06:38:55;;;;;;;17.63;11.57;;;;;;;;;;4931959;29;20246;-61
2022/11/15 06:41:23;;;;;;;8.10;6.67;;;;;;;;;;4928806;29;20211;-62
2022/11/15 06:43:50;;;;;;;6.43;5.27;;;;;;;;;;4919177;29;20298;-60
2022/11/15 06:46:17;;;;;;;11.33;6.23;;;;;;;;;;4915420;29;20662;-61
2022/11/15 06:48:44;;;;;;;7.10;5.67;;;;;;;;;;4914725;29;20200;-62
2022/11/15 06:51:11;;;;;;;4.87;4.40;;;;;;;;;;4916237;29;20215;-60
2022/11/15 06:53:39;;;;;;;10.17;4.50;;;;;;;;;;4912807;29;20215;-60
2022/11/15 06:56:08;;;;;;;4.80;3.50;;;;;;;;;;4912973;29;20594;-61
2022/11/15 06:58:36;;;;;;;4.10;3.63;;;;;;;;;;4913427;29;20248;-60
2022/11/15 07:01:04;;;;;;;5.53;3.40;;;;;;;;;;4895979;29;20217;-61
2022/11/15 07:03:31;;;;;;;5.97;3.27;;;;;;;;;;4914287;29;20216;-63
2022/11/15 07:05:59;;;;;;;6.00;3.47;;;;;;;;;;4914539;29;20201;-62
2022/11/15 07:08:29;;;;;;;3.63;3.33;;;;;;;;;;4907281;29;20208;-63
2022/11/15 07:10:59;;;;;;;6.80;6.10;;;;;;;;;;4906312;29;20223;-63
2022/11/15 07:13:26;;;;;;;13.57;8.47;;;;;;;;;;4912873;29;20595;-63
2022/11/15 07:15:53;;;;;;;8.20;6.60;;;;;;;;;;4910268;29;20560;-63
2022/11/15 07:18:21;;;;;;;5.97;4.73;;;;;;;;;;4906765;29;20595;-62
2022/11/15 07:20:48;;;;;;;5.37;4.00;;;;;;;;;;4914886;29;20205;-63
2022/11/15 07:23:15;;;;;;;4.33;3.63;;;;;;;;;;4914357;29;20208;-63
2022/11/15 07:25:42;;;;;;;4.63;3.40;;;;;;;;;;4911922;29;20208;-63
2022/11/15 07:28:10;;;;;;;3.30;3.00;;;;;;;;;;4905087;29;20694;-63
2022/11/15 07:30:37;;;;;;;4.00;3.63;;;;;;;;;;4906215;29;20208;-63
2022/11/15 07:33:04;;;;;;;5.13;3.47;;;;;;;;;;4904569;29;20220;-63
2022/11/15 07:35:32;;;;;;;5.43;3.53;;;;;;;;;;4914383;29;20204;-63
2022/11/15 07:37:59;;;;;;;5.87;3.30;;;;;;;;;;4903878;29;20205;-63
2022/11/15 07:40:26;;;;;;;3.80;3.37;;;;;;;;;;4914228;29;20219;-63
2022/11/15 07:42:53;;;;;;;8.77;3.50;;;;;;;;;;4904297;29;20204;-63
2022/11/15 07:45:22;;;;;;;4.07;3.50;;;;;;;;;;4904177;29;20208;-62
2022/11/15 07:47:50;;;;;;;3.53;2.97;;;;;;;;;;4904195;29;20232;-63
2022/11/15 07:50:17;;;;;;;3.50;3.10;;;;;;;;;;4913536;29;20213;-63
2022/11/15 07:52:44;;;;;;;3.80;3.43;;;;;;;;;;4913408;29;20212;-63
2022/11/15 07:55:11;;;;;;;3.47;3.10;;;;;;;;;;4913526;29;20232;-63
2022/11/15 07:57:39;;;;;;;3.73;3.43;;;;;;;;;;4907930;29;20212;-63
2022/11/15 08:00:07;;;;;;;4.17;3.60;;;;;;;;;;4913318;29;20232;-63
2022/11/15 08:02:35;;;;;;;3.80;3.60;;;;;;;;;;4903209;29;20338;-62
2022/11/15 08:05:02;;;;;;;3.80;3.37;;;;;;;;;;4908100;29;20223;-63
2022/11/15 08:07:31;;;;;;;4.70;3.47;;;;;;;;;;4913242;29;20204;-62
2022/11/15 08:09:58;;;;;;;3.30;3.03;;;;;;;;;;4912683;29;20801;-63
2022/11/15 08:12:25;;;;;;;3.87;3.10;;;;;;;;;;4912787;29;20820;-63
2022/11/15 08:14:52;;;;;;;3.20;3.00;;;;;;;;;;4910129;29;20204;-61
2022/11/15 08:17:19;;;;;;;3.20;2.37;;;;;;;;;;4912796;29;20208;-61
2022/11/15 08:19:47;;;;;;;3.23;2.93;;;;;;;;;;4912619;29;20233;-61
2022/11/15 08:22:15;;;;;;;3.87;2.90;;;;;;;;;;4903161;29;20213;-61
2022/11/15 08:24:42;;;;;;;4.23;3.10;;;;;;;;;;4912994;29;20204;-61
2022/11/15 08:27:14;;;;;;;5.17;3.23;;;;;;;;;;4912820;29;20208;-63
2022/11/15 08:29:41;;;;;;;4.80;3.40;;;;;;;;;;4909000;29;20212;-63
2022/11/15 08:32:08;;;;;;;8.33;3.73;;;;;;;;;;4902290;29;20204;-63
2022/11/15 08:34:35;;;;;;;3.80;3.20;;;;;;;;;;4894132;29;20602;-63
2022/11/15 08:37:04;;;;;;;3.93;3.03;;;;;;;;;;4898626;29;20236;-63
2022/11/15 08:39:31;;;;;;;3.10;2.83;;;;;;;;;;4932893;29;20236;-62
2022/11/15 08:41:58;;;;;;;3.67;2.83;;;;;;;;;;4924687;29;20215;-63
2022/11/15 08:44:25;;;;;;;4.40;2.90;;;;;;;;;;4913554;29;20243;-65
2022/11/15 08:46:52;;;;;;;4.53;3.20;;;;;;;;;;4927630;29;20316;-63
2022/11/15 08:49:19;;;;;;;3.53;3.23;;;;;;;;;;4909486;29;20220;-65
2022/11/15 08:51:46;;;;;;;2.97;2.77;;;;;;;;;;4913937;29;20212;-67
2022/11/15 08:54:15;;;;;;;3.47;3.00;;;;;;;;;;4909600;29;20229;-66
2022/11/15 08:56:42;;;;;;;2.70;2.50;;;;;;;;;;4898995;29;20211;-70
2022/11/15 08:59:09;;;;;;;3.20;2.93;;;;;;;;;;4912595;29;20240;-62
2022/11/15 09:01:36;;;;;;;3.43;3.13;;;;;;;;;;4921811;29;20227;-62
2022/11/15 09:04:03;;;;;;;4.03;3.40;;;;;;;;;;4924332;29;20314;-60
2022/11/15 09:06:30;;;;;;;5.17;4.37;;;;;;;;;;4913179;29;20251;-61
2022/11/15 09:08:58;;;;;;;5.33;4.30;;;;;;;;;;4916656;29;20684;-62
2022/11/15 09:11:26;;;;;;;3.30;3.00;;;;;;;;;;4914367;29;20216;-60
2022/11/15 09:13:53;;;;;;;4.27;3.50;;;;;;;;;;4901761;29;20694;-62
2022/11/15 09:16:21;;;;;;;3.40;3.10;;;;;;;;;;4915222;29;20204;-61
2022/11/15 09:18:48;;;;;;;3.73;2.90;;;;;;;;;;4924730;29;20243;-61
2022/11/15 09:21:15;;;;;;;3.27;2.97;;;;;;;;;;4921653;29;20222;-61
2022/11/15 09:23:42;;;;;;;3.27;2.97;;;;;;;;;;4929278;29;20227;-62
2022/11/15 09:26:09;;;;;;;3.87;3.13;;;;;;;;;;4911011;29;20676;-61
2022/11/15 09:28:38;;;;;;;4.13;3.00;;;;;;;;;;4921076;29;20211;-61
2022/11/15 09:31:06;;;;;;;2.90;2.70;;;;;;;;;;4915527;29;20222;-61
2022/11/15 09:33:33;;;;;;;3.30;3.00;;;;;;;;;;4919602;29;20702;-62
2022/11/15 09:36:04;;;;;;;3.20;3.00;;;;;;;;;;4911417;29;20687;-62
2022/11/15 09:38:31;;;;;;;3.20;3.00;;;;;;;;;;4912147;29;20224;-62
2022/11/15 09:41:10;;;;;;;3.40;3.03;;;;;;;;;;4909019;29;20879;-62
2022/11/15 09:43:42;;;;;;;3.23;2.93;;;;;;;;;;4912412;29;20215;-63
2022/11/15 09:46:14;;;;;;;3.23;2.97;;;;;;;;;;4913900;29;20216;-63
2022/11/15 09:48:49;;;;;;;5.20;2.67;;;;;;;;;;4926089;29;20714;-63
2022/11/15 09:51:22;;;;;;;6.30;3.10;;;;;;;;;;4912802;29;20220;-63
2022/11/15 09:53:51;;;;;;;3.13;2.67;;;;;;;;;;4907010;29;20586;-63
2022/11/15 09:56:21;;;;;;;3.10;2.87;;;;;;;;;;4930675;29;20391;-63
2022/11/15 09:58:55;;;;;;;4.80;3.30;;;;;;;;;;4904348;29;20291;-63
2022/11/15 10:01:30;;;;;;;3.80;3.17;;;;;;;;;;4916058;29;20211;-63
2022/11/15 10:03:59;;;;;;;2.70;2.43;;;;;;;;;;4915956;29;20702;-63
2022/11/15 10:06:27;;;;;;;5.07;3.37;;;;;;;;;;4915872;29;20954;-63
2022/11/15 10:08:57;;;;;;;2.90;2.70;;;;;;;;;;4913088;29;20216;-62
2022/11/15 10:11:26;;;;;;;3.10;2.90;;;;;;;;;;4905519;29;20223;-63
2022/11/15 10:13:56;;;;;;;4.10;2.87;;;;;;;;;;4906341;29;20213;-63
2022/11/15 10:16:32;;;;;;;3.00;2.80;;;;;;;;;;4923458;29;20211;-63
2022/11/15 10:19:03;;;;;;;4.20;3.23;;;;;;;;;;4916278;29;20208;-63
2022/11/15 10:21:34;;;;;;;3.47;3.17;;;;;;;;;;4908756;29;20216;-62
2022/11/15 10:24:01;;;;;;;4.10;2.93;;;;;;;;;;4915593;29;20212;-63
2022/11/15 10:26:28;;;;;;;4.73;3.10;;;;;;;;;;4920797;29;20279;-63
2022/11/15 10:28:56;;;;;;;4.47;2.83;;;;;;;;;;4916019;29;20259;-63
2022/11/15 10:31:24;;;;;;;5.60;3.43;;;;;;;;;;4915539;29;20213;-63
2022/11/15 10:33:52;;;;;;;8.20;2.80;;;;;;;;;;4910325;29;20239;-63
2022/11/15 10:36:21;;;;;;;3.00;2.80;;;;;;;;;;4909703;29;20224;-63
2022/11/15 10:38:53;;;;;;;3.53;2.93;;;;;;;;;;4911415;29;20220;-63
2022/11/15 10:41:21;;;;;;;3.23;2.93;;;;;;;;;;4914902;29;20606;-63
2022/11/15 10:44:03;;;;;;;2.90;2.70;;;;;;;;;;4915348;29;20593;-63
2022/11/15 10:46:31;;;;;;;4.13;3.43;;;;;;;;;;4916001;29;20220;-63
2022/11/15 10:49:13;;;;;;;3.27;3.00;;;;;;;;;;4927035;29;20216;-63
2022/11/15 10:51:43;;;;;;;9.23;5.77;;;;;;;;;;4922163;29;20269;-63
2022/11/15 10:54:12;;;;;;;6.63;4.00;;;;;;;;;;4915089;29;20247;-60
2022/11/15 10:56:40;;;;;;;3.20;2.90;;;;;;;;;;4916447;29;20240;-64
2022/11/15 10:59:15;;;;;;;4.63;2.87;;;;;;;;;;4914786;29;20244;-63
2022/11/15 11:01:49;;;;;;;4.67;2.77;;;;;;;;;;4895784;29;20216;-63
2022/11/15 11:04:16;;;;;;;5.10;3.87;;;;;;;;;;4895818;29;20216;-63
2022/11/15 11:06:50;;;;;;;5.97;3.80;;;;;;;;;;4914843;29;20212;-63
2022/11/15 11:09:25;;;;;;;4.00;3.60;;;;;;;;;;4915645;29;20301;-64
2022/11/15 11:11:53;;;;;;;4.50;3.20;;;;;;;;;;4928340;29;20796;-64
2022/11/15 11:14:23;;;;;;;2.90;2.60;;;;;;;;;;4931598;29;20215;-62
2022/11/15 11:16:52;;;;;;;3.97;2.97;;;;;;;;;;4933571;29;20216;-63
2022/11/15 11:19:41;;;;;;;3.33;3.00;;;;;;;;;;4924881;29;20216;-65
2022/11/15 11:22:13;;;;;;;5.47;4.07;;;;;;;;;;4904109;29;20209;-60
2022/11/15 11:24:44;;;;;;;4.70;3.33;;;;;;;;;;4896297;29;20829;-64
2022/11/15 11:27:19;;;;;;;3.50;3.20;;;;;;;;;;4902909;29;20551;-65
2022/11/15 11:29:54;;;;;;;4.60;2.83;;;;;;;;;;4914623;29;20268;-63
2022/11/15 11:32:31;;;;;;;3.37;2.70;;;;;;;;;;4914566;29;20222;-65
2022/11/15 11:35:03;;;;;;;5.13;2.80;;;;;;;;;;4918099;29;20204;-65
2022/11/15 11:37:32;;;;;;;4.17;3.20;;;;;;;;;;4921175;29;20212;-62
2022/11/15 11:40:03;;;;;;;2.63;2.43;;;;;;;;;;4914255;29;20236;-63
2022/11/15 11:42:34;;;;;;;2.90;2.63;;;;;;;;;;4915146;29;20212;-62
2022/11/15 11:45:06;;;;;;;3.10;2.80;;;;;;;;;;4913949;29;20667;-63
2022/11/15 11:47:40;;;;;;;4.07;3.03;;;;;;;;;;4914496;29;20216;-61
2022/11/15 11:50:13;;;;;;;5.20;3.07;;;;;;;;;;4927160;29;20211;-64
2022/11/15 11:52:42;;;;;;;4.60;2.97;;;;;;;;;;4919389;29;20957;-63
2022/11/15 11:55:16;;;;;;;2.67;2.47;;;;;;;;;;4911000;29;20244;-64
2022/11/15 11:57:45;;;;;;;3.70;2.87;;;;;;;;;;4916666;29;20205;-64
2022/11/15 12:00:18;;;;;;;2.50;2.30;;;;;;;;;;4926067;29;20236;-65
2022/11/15 12:02:49;;;;;;;2.70;2.50;;;;;;;;;;4916761;29;20209;-64
2022/11/15 12:05:18;;;;;;;4.77;3.53;;;;;;;;;;4913161;29;20561;-63
2022/11/15 12:07:46;;;;;;;3.40;3.07;;;;;;;;;;4917473;29;20208;-64
2022/11/15 12:10:18;;;;;;;3.40;2.80;;;;;;;;;;4927653;29;20200;-65
2022/11/15 12:12:48;;;;;;;3.57;2.90;;;;;;;;;;4901075;29;20208;-66
2022/11/15 12:15:18;;;;;;;3.13;2.90;;;;;;;;;;4910473;29;20224;-61
2022/11/15 12:17:46;;;;;;;3.27;2.97;;;;;;;;;;4902897;29;20235;-61
2022/11/15 12:20:19;;;;;;;3.37;3.17;;;;;;;;;;4903488;29;20232;-64
2022/11/15 12:22:50;;;;;;;3.87;2.83;;;;;;;;;;4909991;29;20223;-64
2022/11/15 12:25:18;;;;;;;2.93;2.73;;;;;;;;;;4913382;29;20295;-63
2022/11/15 12:27:47;;;;;;;3.40;2.87;;;;;;;;;;4915966;29;20209;-64
2022/11/15 12:30:28;;;;;;;5.60;3.10;;;;;;;;;;5083662;28;21066;-63
2022/11/15 12:32:56;;;;;;;4.73;3.43;;;;;;;;;;5085275;28;20691;-64
2022/11/15 12:35:28;;;;;;;6.17;3.03;;;;;;;;;;5085782;28;20212;-63
2022/11/15 12:37:56;;;;;;;3.53;3.20;;;;;;;;;;5085960;28;20221;-63
2022/11/15 12:40:34;;;;;;;3.27;3.00;;;;;;;;;;5085554;28;20230;-63
2022/11/15 12:43:32;;;;;;;3.37;3.03;;;;;;;;;;5085617;28;20206;-64
2022/11/15 12:46:06;;;;;;;3.07;2.67;;;;;;;;;;5066197;28;20612;-64
2022/11/15 12:48:50;;;;;;;3.40;3.10;;;;;;;;;;5084603;28;20311;-64
2022/11/15 12:51:18;;;;;;;7.40;3.50;;;;;;;;;;5084978;28;20217;-63
2022/11/15 12:53:45;;;;;;;3.23;2.93;;;;;;;;;;5084418;28;20206;-64
2022/11/15 12:56:23;;;;;;;2.90;2.63;;;;;;;;;;5065732;28;20703;-63
2022/11/15 12:58:52;;;;;;;3.00;2.80;;;;;;;;;;5056641;28;20249;-61
2022/11/15 13:01:38;;;;;;;4.67;2.90;;;;;;;;;;5065523;28;20214;-61
2022/11/15 13:04:16;;;;;;;2.53;2.40;;;;;;;;;;5064871;28;20222;-62
2022/11/15 13:06:45;;;;;;;5.63;2.70;;;;;;;;;;5065218;28;20211;-62
2022/11/15 13:09:30;;;;;;;3.20;2.80;;;;;;;;;;5064711;28;20234;-62
2022/11/15 13:11:58;;;;;;;2.60;2.17;;;;;;;;;;5063878;28;20206;-62
2022/11/15 13:14:44;;;;;;;3.42;2.47;;;;;;;;;;5065029;28;20214;-59
2022/11/15 13:17:28;;;;;;;2.77;2.57;;;;;;;;;;5064565;28;20203;-62
2022/11/15 13:19:59;;;;;;;3.00;2.80;;;;;;;;;;5064853;28;20199;-69
2022/11/15 13:25:19;;;;;;;2.23;2.13;;;;;;;;;;5064205;28;20246;-62
2022/11/15 13:27:47;;;;;;;2.70;2.50;;;;;;;;;;5064386;28;20195;-61
2022/11/15 13:30:16;;;;;;;2.70;2.33;;;;;;;;;;5064562;28;20247;-65
2022/11/15 13:32:43;;;;;;;3.65;2.42;;;;;;;;;;5062124;28;20566;-61
2022/11/15 13:35:11;;;;;;;2.27;2.07;;;;;;;;;;5064562;28;20210;-63
2022/11/15 13:37:39;;;;;;;3.40;2.40;;;;;;;;;;5064242;28;20199;-62
2022/11/15 13:40:20;;;;;;;2.80;2.35;;;;;;;;;;5060287;28;20299;-64
2022/11/15 13:42:47;;;;;;;6.33;3.70;;;;;;;;;;5050075;28;20196;-64
2022/11/15 13:45:16;;;;;;;6.43;3.90;;;;;;;;;;5050886;28;20207;-64
2022/11/15 13:47:43;;;;;;;2.58;2.47;;;;;;;;;;5051193;28;20208;-63
2022/11/15 13:50:13;;;;;;;2.13;1.93;;;;;;;;;;5051054;28;20228;-64
2022/11/15 13:52:42;;;;;;;2.43;2.33;;;;;;;;;;5049973;28;20714;-64
2022/11/15 13:55:11;;;;;;;2.47;1.60;;;;;;;;;;5050617;28;20249;-64
2022/11/15 13:57:41;;;;;;;2.30;2.10;;;;;;;;;;5043200;28;20640;-64
2022/11/15 14:00:26;;;;;;;3.60;3.30;;;;;;;;;;5040596;28;20863;-62
2022/11/15 14:02:54;;;;;;;2.40;2.30;;;;;;;;;;5047891;28;20200;-63
2022/11/15 14:05:24;;;;;;;2.07;1.80;;;;;;;;;;5040382;28;20204;-62
2022/11/15 14:07:54;;;;;;;1.90;1.73;;;;;;;;;;5032358;28;20209;-62
2022/11/15 14:10:27;;;;;;;2.05;1.88;;;;;;;;;;5050414;28;20235;-62
2022/11/15 14:12:54;;;;;;;1.40;1.40;;;;;;;;;;5050527;28;20211;-63
2022/11/15 14:15:27;;;;;;;4.35;1.80;;;;;;;;;;5050887;28;20215;-63
2022/11/15 14:17:54;;;;;;;2.30;1.33;;;;;;;;;;5050344;28;20678;-62
2022/11/15 14:20:29;;;;;;;1.33;1.30;;;;;;;;;;5050368;28;20295;-63
2022/11/15 14:22:56;;;;;;;2.60;1.30;;;;;;;;;;5049704;28;20206;-66
2022/11/15 14:25:24;;;;;;;1.27;1.17;;;;;;;;;;5048931;28;20200;-63
2022/11/15 14:28:11;;;;;;;1.00;1.00;;;;;;;;;;5046886;28;20207;-63
2022/11/15 14:30:39;;;;;;;1.03;0.90;;;;;;;;;;5041421;28;20733;-62
2022/11/15 14:33:18;;;;;;;1.00;0.90;;;;;;;;;;5047338;28;20290;-62
2022/11/15 14:35:47;;;;;;;0.70;0.70;;;;;;;;;;5041082;28;20223;-62
2022/11/15 14:38:14;;;;;;;1.23;1.13;;;;;;;;;;5047025;28;20647;-62
2022/11/15 14:40:42;;;;;;;2.28;1.10;;;;;;;;;;5049204;28;20235;-62
2022/11/15 14:43:10;;;;;;;5.43;1.87;;;;;;;;;;5049368;28;20625;-62
2022/11/15 14:45:37;;;;;;;3.70;2.47;;;;;;;;;;5049951;28;20215;-62
2022/11/15 14:48:04;;;;;;;2.73;2.47;;;;;;;;;;5049975;28;20701;-62
2022/11/15 14:50:31;;;;;;;3.33;2.43;;;;;;;;;;5040294;28;20220;-62
2022/11/15 14:52:59;;;;;;;3.83;2.63;;;;;;;;;;5048945;28;20216;-65
2022/11/15 14:55:28;;;;;;;1.97;1.77;;;;;;;;;;5049893;28;20748;-65
2022/11/15 14:57:55;;;;;;;1.70;0.90;;;;;;;;;;5049803;28;20670;-62
2022/11/15 15:00:22;;;;;;;1.10;1.10;;;;;;;;;;5049624;28;20223;-62
2022/11/15 15:02:51;;;;;;;0.80;0.80;;;;;;;;;;5049774;28;20207;-62
2022/11/15 15:05:19;;;;;;;1.23;0.80;;;;;;;;;;5048878;28;20211;-65
2022/11/15 15:07:46;;;;;;;1.00;1.00;;;;;;;;;;5049032;28;20199;-62
2022/11/15 15:10:15;;;;;;;0.97;0.97;;;;;;;;;;5047929;28;20317;-62